Terminal Aerodrome Forecast
Issued by NWS Portland, OR

Home | Current Version | Previous Version | Text Only | Print | Product List | Glossary On
Versions: 1 2 3 4 5 6 7 8 9 10 11 12 13 14 15 16 17 18
000
FTUS46 KPQR 310529
TAFSLE
TAF
KSLE 310529Z 3106/0106 16003KT 6SM -RA BR BKN009 OVC018
     FM311600 17006KT 4SM BR OVC035
     FM311900 17007KT P6SM VCSH BKN050=

USA.gov is the U.S. government's official web portal to all federal, state and local government web resources and services.